createdAt,value
2022-08-22T00:02:18.252Z,13.85
2022-08-22T00:02:59.714Z,16.31
2022-08-22T00:03:04.030Z,18.03
2022-08-22T00:03:04.654Z,15.56
2022-08-22T00:05:03.525Z,13.84
2022-08-22T00:07:42.338Z,13.79
2022-08-22T00:10:25.035Z,13.78
2022-08-22T00:13:03.855Z,13.72
2022-08-22T00:15:43.134Z,13.68
2022-08-22T00:18:16.196Z,13.58
2022-08-22T00:20:49.917Z,13.59
2022-08-22T00:23:28.713Z,13.52
2022-08-22T00:26:03.048Z,13.55
2022-08-22T00:28:44.844Z,13.44
2022-08-22T00:31:33.425Z,13.30
2022-08-22T00:34:26.371Z,13.28
2022-08-22T00:37:19.205Z,13.31
2022-08-22T00:40:04.730Z,13.35
2022-08-22T00:42:50.278Z,13.35
2022-08-22T00:45:16.755Z,13.23
2022-08-22T00:47:58.020Z,13.23
2022-08-22T00:50:27.724Z,13.25
2022-08-22T00:53:03.170Z,13.27
2022-08-22T00:56:06.982Z,13.02
2022-08-22T00:58:33.474Z,12.66
2022-08-22T01:01:06.837Z,12.62
2022-08-22T01:03:48.631Z,12.59
2022-08-22T01:06:33.942Z,12.58
2022-08-22T01:09:18.681Z,12.60
2022-08-22T01:12:07.074Z,12.60
2022-08-22T01:14:51.832Z,12.63
2022-08-22T01:17:39.252Z,12.63
2022-08-22T01:20:33.606Z,12.69
2022-08-22T01:23:12.202Z,12.71
2022-08-22T01:25:57.554Z,12.73
2022-08-22T01:28:54.673Z,12.69
2022-08-22T01:31:44.395Z,12.82
2022-08-22T01:34:53.662Z,12.81
2022-08-22T01:37:29.117Z,12.79
2022-08-22T01:40:14.553Z,12.73
2022-08-22T01:42:53.316Z,12.58
2022-08-22T01:45:57.602Z,12.65
2022-08-22T01:48:27.290Z,12.63
2022-08-22T01:51:22.074Z,12.70
2022-08-22T01:54:11.454Z,12.68
2022-08-22T01:56:44.463Z,12.66
2022-08-22T01:59:42.134Z,12.61
2022-08-22T02:02:28.319Z,12.56
2022-08-22T02:05:01.573Z,12.52
2022-08-22T02:07:52.673Z,12.51
2022-08-22T02:11:06.098Z,12.53
2022-08-22T02:13:49.200Z,12.53
2022-08-22T02:16:31.061Z,12.51
2022-08-22T02:19:15.926Z,12.51
2022-08-22T02:21:50.490Z,12.47
2022-08-22T02:24:19.548Z,12.43
2022-08-22T02:27:04.240Z,12.39
2022-08-22T02:29:41.915Z,12.33
2022-08-22T02:32:40.786Z,12.37
2022-08-22T02:35:14.343Z,12.28
2022-08-22T02:37:57.421Z,12.33
2022-08-22T02:40:42.014Z,12.49
2022-08-22T02:43:29.679Z,12.57
2022-08-22T02:46:18.878Z,12.44
2022-08-22T02:48:56.067Z,12.27
2022-08-22T02:51:45.791Z,12.24
2022-08-22T02:54:30.691Z,12.21
2022-08-22T02:57:03.283Z,12.24
2022-08-22T02:59:34.514Z,12.22
2022-08-22T03:02:39.279Z,12.25
2022-08-22T03:05:17.923Z,12.28
2022-08-22T03:07:53.305Z,12.27
2022-08-22T03:10:24.023Z,12.25
2022-08-22T03:12:57.427Z,12.24
2022-08-22T03:15:24.497Z,12.20
2022-08-22T03:18:06.162Z,12.12
2022-08-22T03:20:38.201Z,12.13
2022-08-22T03:23:10.426Z,12.09
2022-08-22T03:25:49.037Z,11.97
2022-08-22T03:28:58.997Z,11.81
2022-08-22T03:31:28.283Z,11.79
2022-08-22T03:34:16.634Z,11.77
2022-08-22T03:37:02.153Z,11.77
2022-08-22T03:39:49.951Z,11.72
2022-08-22T03:42:17.907Z,11.74
2022-08-22T03:45:03.268Z,11.76
2022-08-22T03:48:16.433Z,11.74
2022-08-22T03:51:12.342Z,11.75
2022-08-22T03:54:04.335Z,11.75
2022-08-22T03:57:08.797Z,11.71
2022-08-22T03:59:44.587Z,11.62
2022-08-22T04:02:42.528Z,11.58
2022-08-22T04:05:10.353Z,11.53
2022-08-22T04:07:58.447Z,11.51
2022-08-22T04:11:07.685Z,11.47
2022-08-22T04:13:53.227Z,11.45
2022-08-22T04:16:38.833Z,11.37
2022-08-22T04:19:32.178Z,11.22
2022-08-22T04:22:29.575Z,11.14
2022-08-22T04:25:01.113Z,11.19
2022-08-22T04:27:49.745Z,11.21
2022-08-22T04:30:16.274Z,11.25
2022-08-22T04:32:53.223Z,11.29
2022-08-22T04:35:39.797Z,11.26
2022-08-22T04:38:30.797Z,11.31
2022-08-22T04:41:12.675Z,11.35
2022-08-22T04:43:49.860Z,11.36
2022-08-22T04:46:23.243Z,11.32
2022-08-22T04:49:00.143Z,11.39
2022-08-22T04:51:36.933Z,11.41
2022-08-22T04:54:41.212Z,11.36
2022-08-22T04:57:39.471Z,11.32
2022-08-22T05:00:10.358Z,11.28
2022-08-22T05:02:39.967Z,11.32
2022-08-22T05:05:13.803Z,11.24
2022-08-22T05:07:46.260Z,11.28
2022-08-22T05:10:19.993Z,11.33
2022-08-22T05:12:55.314Z,11.36
2022-08-22T05:15:30.982Z,11.38
2022-08-22T05:18:09.396Z,11.39
2022-08-22T05:20:37.851Z,11.34
2022-08-22T05:23:42.446Z,11.27
2022-08-22T05:26:11.042Z,11.20
2022-08-22T05:28:41.648Z,11.26
2022-08-22T05:31:11.076Z,11.32
2022-08-22T05:33:49.048Z,11.38
2022-08-22T05:36:21.093Z,11.40
2022-08-22T05:38:56.282Z,11.50
2022-08-22T05:41:26.106Z,11.61
2022-08-22T05:43:53.811Z,11.78
2022-08-22T05:46:39.989Z,11.92
2022-08-22T05:49:16.356Z,12.04
2022-08-22T05:51:58.156Z,12.16
2022-08-22T05:54:33.739Z,12.30
2022-08-22T05:57:29.056Z,12.50
2022-08-22T06:00:12.911Z,12.74
2022-08-22T06:02:48.690Z,13.02
2022-08-22T06:05:22.193Z,13.27
2022-08-22T06:07:50.570Z,13.53
2022-08-22T06:10:17.426Z,13.87
2022-08-22T06:12:59.507Z,14.16
2022-08-22T06:15:53.056Z,14.50
2022-08-22T06:18:24.745Z,14.81
2022-08-22T06:21:02.025Z,14.97
2022-08-22T06:23:33.400Z,14.95
2022-08-22T06:26:01.578Z,14.89
2022-08-22T06:28:34.003Z,14.76
2022-08-22T06:31:02.528Z,14.63
2022-08-22T06:33:31.355Z,14.60
2022-08-22T06:36:20.642Z,14.58
2022-08-22T06:38:50.995Z,14.67
2022-08-22T06:41:18.105Z,14.88
2022-08-22T06:43:44.850Z,15.36
2022-08-22T06:46:13.491Z,16.00
2022-08-22T06:48:41.373Z,16.49
2022-08-22T06:51:09.528Z,16.78
2022-08-22T06:53:47.769Z,16.95
2022-08-22T06:56:21.109Z,16.98
2022-08-22T06:58:49.105Z,17.07
2022-08-22T07:01:24.143Z,17.14
2022-08-22T07:03:55.665Z,17.25
2022-08-22T07:06:30.991Z,17.38
2022-08-22T07:08:58.314Z,17.74
2022-08-22T07:11:34.858Z,18.10
2022-08-22T07:14:03.329Z,18.38
2022-08-22T07:16:52.187Z,18.65
2022-08-22T07:19:39.917Z,18.99
2022-08-22T07:22:33.216Z,19.21
2022-08-22T07:25:06.342Z,19.23
2022-08-22T07:27:54.503Z,19.28
2022-08-22T07:30:27.931Z,19.31
2022-08-22T07:33:25.639Z,19.53
2022-08-22T07:35:59.746Z,19.77
2022-08-22T07:38:42.810Z,20.03
2022-08-22T07:41:22.875Z,20.24
2022-08-22T07:43:51.773Z,20.58
2022-08-22T07:46:29.033Z,20.81
2022-08-22T07:49:19.975Z,21.02
2022-08-22T07:51:50.703Z,21.38
2022-08-22T07:54:27.057Z,21.69
2022-08-22T07:57:01.725Z,21.54
2022-08-22T07:59:29.721Z,21.40
2022-08-22T08:01:58.824Z,21.52
2022-08-22T08:04:29.763Z,22.05
2022-08-22T08:06:59.061Z,22.34
2022-08-22T08:09:29.254Z,22.82
2022-08-22T08:11:56.258Z,23.26
2022-08-22T08:14:23.768Z,23.60
2022-08-22T08:17:30.125Z,23.62
2022-08-22T08:20:00.494Z,23.68
2022-08-22T08:22:27.816Z,24.05
2022-08-22T08:24:56.882Z,24.37
2022-08-22T08:27:44.494Z,24.58
2022-08-22T08:30:24.589Z,24.34
2022-08-22T08:32:57.568Z,24.41
2022-08-22T08:36:01.824Z,24.20
2022-08-22T08:38:33.503Z,23.95
2022-08-22T08:41:28.434Z,24.45
2022-08-22T08:44:17.079Z,23.77
2022-08-22T08:47:20.695Z,23.94
2022-08-22T08:50:04.924Z,23.86
2022-08-22T08:52:52.901Z,24.07
2022-08-22T08:55:51.230Z,24.43
2022-08-22T08:58:24.120Z,24.46
2022-08-22T09:01:07.339Z,24.60
2022-08-22T09:03:56.259Z,24.69
2022-08-22T09:06:52.674Z,24.66
2022-08-22T09:09:45.039Z,24.50
2022-08-22T09:12:25.384Z,24.21
2022-08-22T09:15:11.818Z,24.22
2022-08-22T09:18:00.150Z,23.97
2022-08-22T09:20:48.205Z,24.22
2022-08-22T09:23:48.935Z,24.59
2022-08-22T09:26:40.267Z,25.18
2022-08-22T09:29:51.447Z,25.63
2022-08-22T09:32:34.444Z,25.35
2022-08-22T09:35:19.407Z,25.69
2022-08-22T09:38:10.258Z,25.62
2022-08-22T09:40:48.090Z,25.46
2022-08-22T09:43:24.038Z,25.49
2022-08-22T09:46:22.003Z,26.03
2022-08-22T09:49:05.619Z,26.97
2022-08-22T09:51:46.872Z,27.87
2022-08-22T09:54:34.683Z,29.54
2022-08-22T09:57:13.914Z,31.21
2022-08-22T09:59:46.731Z,31.51
2022-08-22T10:02:28.533Z,31.98
2022-08-22T10:05:04.138Z,31.34
2022-08-22T10:07:33.815Z,30.30
2022-08-22T10:10:21.374Z,31.04
2022-08-22T10:13:00.937Z,29.09
2022-08-22T10:15:39.523Z,27.99
2022-08-22T10:19:03.666Z,26.36
2022-08-22T10:21:46.983Z,27.11
2022-08-22T10:24:25.484Z,29.82
2022-08-22T10:26:55.051Z,32.09
2022-08-22T10:29:43.474Z,31.93
2022-08-22T10:32:20.574Z,31.82
2022-08-22T10:34:57.591Z,32.21
2022-08-22T10:37:37.632Z,32.24
2022-08-22T10:40:30.380Z,33.63
2022-08-22T10:43:02.445Z,33.83
2022-08-22T10:45:44.772Z,33.25
2022-08-22T10:48:20.785Z,32.33
2022-08-22T10:50:50.989Z,31.50
2022-08-22T10:53:30.598Z,32.65
2022-08-22T10:56:27.384Z,32.55
2022-08-22T10:59:12.955Z,32.52
2022-08-22T11:01:47.223Z,32.49
2022-08-22T11:04:33.170Z,31.99
2022-08-22T11:07:17.177Z,32.79
2022-08-22T11:09:55.319Z,33.86
2022-08-22T11:12:35.057Z,33.01
2022-08-22T11:15:03.131Z,33.04
2022-08-22T11:17:38.111Z,35.19
2022-08-22T11:20:23.454Z,36.83
2022-08-22T11:22:55.580Z,38.67
2022-08-22T11:25:36.019Z,39.67
2022-08-22T11:28:05.628Z,40.83
2022-08-22T11:30:44.213Z,41.02
2022-08-22T11:33:11.552Z,40.45
2022-08-22T11:35:42.579Z,39.46
2022-08-22T11:38:20.477Z,37.04
2022-08-22T11:40:59.212Z,34.12
2022-08-22T11:43:32.350Z,32.85
2022-08-22T11:46:00.437Z,33.43
2022-08-22T11:48:28.798Z,34.10
2022-08-22T11:51:00.156Z,35.10
2022-08-22T11:53:39.437Z,36.47
2022-08-22T11:56:21.079Z,37.25
2022-08-22T11:58:59.940Z,36.28
2022-08-22T12:01:37.989Z,35.12
2022-08-22T12:04:15.477Z,32.09
2022-08-22T12:06:46.734Z,31.50
2022-08-22T12:09:13.504Z,29.76
2022-08-22T12:11:52.565Z,29.53
2022-08-22T12:14:26.856Z,29.59
2022-08-22T12:16:57.322Z,30.10
2022-08-22T12:19:32.673Z,32.04
2022-08-22T12:22:18.125Z,32.90
2022-08-22T12:24:47.578Z,32.62
2022-08-22T12:27:29.225Z,32.53
2022-08-22T12:30:02.139Z,32.04
2022-08-22T12:32:37.721Z,31.39
2022-08-22T12:35:29.823Z,30.71
2022-08-22T12:38:28.602Z,30.08
2022-08-22T12:40:56.256Z,29.16
2022-08-22T12:43:42.650Z,28.73
2022-08-22T12:46:13.225Z,27.78
2022-08-22T12:48:52.111Z,27.29
2022-08-22T12:51:18.540Z,26.88
2022-08-22T12:54:04.546Z,26.56
2022-08-22T12:56:33.706Z,26.35
2022-08-22T12:59:18.908Z,26.32
2022-08-22T13:01:46.586Z,26.23
2022-08-22T13:04:19.224Z,26.08
2022-08-22T13:07:06.562Z,25.81
2022-08-22T13:09:37.785Z,25.55
2022-08-22T13:12:23.037Z,25.62
2022-08-22T13:14:50.234Z,25.88
2022-08-22T13:17:25.082Z,26.18
2022-08-22T13:19:57.195Z,26.69
2022-08-22T13:22:26.406Z,27.15
2022-08-22T13:25:01.427Z,27.58
2022-08-22T13:27:33.680Z,27.86
2022-08-22T13:30:01.329Z,28.12
2022-08-22T13:32:27.848Z,28.24
2022-08-22T13:34:55.044Z,28.45
2022-08-22T13:37:24.583Z,28.65
2022-08-22T13:39:52.677Z,28.90
2022-08-22T13:42:29.636Z,29.08
2022-08-22T13:44:58.165Z,29.15
2022-08-22T13:47:25.726Z,29.33
2022-08-22T13:49:53.901Z,29.49
2022-08-22T13:52:29.649Z,29.50
2022-08-22T13:55:01.453Z,29.68
2022-08-22T13:57:29.077Z,29.96
2022-08-22T14:00:05.570Z,29.99
2022-08-22T14:02:34.312Z,29.57
2022-08-22T14:05:01.852Z,29.48
2022-08-22T14:07:33.409Z,29.04
2022-08-22T14:10:12.545Z,28.79
2022-08-22T14:12:50.288Z,28.76
2022-08-22T14:15:23.501Z,28.74
2022-08-22T14:17:50.911Z,28.57
2022-08-22T14:20:32.067Z,27.98
2022-08-22T14:23:04.130Z,27.58
2022-08-22T14:25:34.191Z,27.36
2022-08-22T14:28:03.153Z,27.34
2022-08-22T14:30:34.547Z,27.46
2022-08-22T14:33:00.970Z,27.78
2022-08-22T14:35:35.089Z,28.11
2022-08-22T14:38:30.648Z,28.40
2022-08-22T14:41:01.271Z,28.50
2022-08-22T14:43:29.870Z,28.42
2022-08-22T14:46:01.950Z,28.53
2022-08-22T14:48:51.789Z,28.48
2022-08-22T14:51:18.939Z,28.32
2022-08-22T14:53:48.339Z,28.29
2022-08-22T14:56:19.155Z,28.26
2022-08-22T14:58:47.749Z,28.13
2022-08-22T15:01:16.406Z,28.06
2022-08-22T15:03:43.500Z,27.96
2022-08-22T15:06:11.337Z,28.05
2022-08-22T15:08:42.148Z,28.28
2022-08-22T15:11:11.907Z,28.11
2022-08-22T15:13:38.749Z,27.89
2022-08-22T15:16:16.133Z,27.48
2022-08-22T15:18:51.890Z,27.39
2022-08-22T15:21:29.052Z,27.22
2022-08-22T15:23:56.399Z,27.11
2022-08-22T15:26:22.845Z,26.82
2022-08-22T15:28:53.625Z,26.58
2022-08-22T15:31:20.289Z,26.33
2022-08-22T15:33:47.765Z,26.05
2022-08-22T15:36:19.978Z,25.81
2022-08-22T15:38:56.022Z,25.62
2022-08-22T15:41:22.964Z,25.35
2022-08-22T15:43:54.087Z,25.13
2022-08-22T15:46:23.724Z,24.87
2022-08-22T15:49:11.400Z,24.77
2022-08-22T15:51:41.019Z,24.60
2022-08-22T15:54:16.051Z,24.56
2022-08-22T15:57:03.225Z,24.55
2022-08-22T15:59:53.457Z,24.44
2022-08-22T16:02:27.050Z,24.42
2022-08-22T16:05:17.000Z,24.42
2022-08-22T16:07:43.912Z,24.34
2022-08-22T16:10:10.341Z,24.24
2022-08-22T16:12:39.030Z,24.22
2022-08-22T16:15:10.573Z,24.18
2022-08-22T16:17:41.935Z,24.19
2022-08-22T16:20:09.946Z,24.26
2022-08-22T16:23:09.168Z,24.32
2022-08-22T16:25:44.524Z,24.42
2022-08-22T16:28:31.633Z,24.45
2022-08-22T16:31:34.151Z,24.41
2022-08-22T16:34:16.203Z,24.36
2022-08-22T16:36:44.874Z,24.29
2022-08-22T16:39:11.272Z,24.20
2022-08-22T16:41:40.824Z,24.18
2022-08-22T16:44:33.335Z,24.00
2022-08-22T16:47:26.372Z,23.88
2022-08-22T16:49:52.888Z,23.83
2022-08-22T16:52:25.517Z,23.77
2022-08-22T16:55:02.214Z,23.75
2022-08-22T16:57:38.052Z,23.74
2022-08-22T17:00:12.996Z,23.71
2022-08-22T17:02:45.566Z,23.62
2022-08-22T17:05:30.836Z,23.63
2022-08-22T17:08:10.842Z,23.56
2022-08-22T17:10:40.299Z,23.52
2022-08-22T17:13:09.510Z,23.50
2022-08-22T17:15:35.959Z,23.47
2022-08-22T17:18:11.834Z,23.49
2022-08-22T17:20:57.629Z,23.49
2022-08-22T17:23:45.245Z,23.51
2022-08-22T17:26:18.032Z,23.50
2022-08-22T17:28:52.315Z,23.53
2022-08-22T17:31:37.788Z,23.56
2022-08-22T17:34:07.250Z,23.56
2022-08-22T17:36:53.937Z,23.56
2022-08-22T17:39:55.625Z,23.67
2022-08-22T17:42:28.579Z,23.72
2022-08-22T17:45:13.882Z,23.75
2022-08-22T17:47:44.439Z,23.80
2022-08-22T17:50:19.293Z,23.77
2022-08-22T17:52:46.165Z,23.77
2022-08-22T17:55:12.600Z,23.73
2022-08-22T17:57:45.271Z,23.73
2022-08-22T18:00:24.271Z,23.66
2022-08-22T18:02:52.204Z,23.61
2022-08-22T18:05:32.128Z,23.55
2022-08-22T18:08:04.750Z,23.47
2022-08-22T18:10:53.531Z,23.35
2022-08-22T18:13:38.881Z,23.25
2022-08-22T18:16:12.596Z,23.13
2022-08-22T18:18:40.776Z,23.03
2022-08-22T18:21:10.568Z,22.84
2022-08-22T18:23:44.786Z,22.69
2022-08-22T18:26:21.050Z,22.52
2022-08-22T18:28:52.919Z,22.34
2022-08-22T18:31:22.575Z,22.17
2022-08-22T18:33:55.082Z,22.00
2022-08-22T18:36:23.023Z,21.82
2022-08-22T18:39:03.433Z,21.66
2022-08-22T18:41:50.385Z,21.56
2022-08-22T18:44:21.703Z,21.34
2022-08-22T18:46:51.651Z,21.18
2022-08-22T18:49:19.507Z,21.01
2022-08-22T18:52:05.433Z,20.82
2022-08-22T18:54:36.529Z,20.67
2022-08-22T18:57:08.361Z,20.49
2022-08-22T18:59:34.821Z,20.31
2022-08-22T19:02:09.906Z,20.19
2022-08-22T19:04:40.296Z,20.09
2022-08-22T19:07:10.241Z,19.96
2022-08-22T19:09:40.517Z,19.84
2022-08-22T19:12:11.612Z,19.78
2022-08-22T19:15:13.671Z,19.73
2022-08-22T19:17:43.043Z,19.66
2022-08-22T19:20:34.562Z,19.64
2022-08-22T19:23:19.563Z,19.70
2022-08-22T19:26:04.655Z,19.70
2022-08-22T19:28:35.463Z,19.76
2022-08-22T19:31:22.453Z,19.82
2022-08-22T19:34:03.191Z,19.77
2022-08-22T19:36:32.056Z,19.80
2022-08-22T19:39:00.279Z,19.84
2022-08-22T19:41:45.835Z,19.84
2022-08-22T19:44:18.697Z,19.88
2022-08-22T19:46:46.739Z,19.88
2022-08-22T19:49:27.718Z,19.89
2022-08-22T19:52:14.484Z,19.88
2022-08-22T19:54:47.665Z,19.86
2022-08-22T19:57:19.395Z,19.83
2022-08-22T20:00:00.084Z,19.83
2022-08-22T20:02:49.899Z,19.75
2022-08-22T20:05:22.293Z,19.72
2022-08-22T20:07:48.694Z,19.65
2022-08-22T20:10:35.160Z,19.68
2022-08-22T20:13:07.500Z,19.69
2022-08-22T20:15:36.068Z,19.64
2022-08-22T20:18:12.488Z,19.62
2022-08-22T20:20:56.013Z,19.60
2022-08-22T20:23:27.967Z,19.53
2022-08-22T20:25:55.981Z,19.50
2022-08-22T20:28:34.970Z,19.47
2022-08-22T20:31:02.871Z,19.38
2022-08-22T20:33:49.653Z,19.30
2022-08-22T20:36:27.858Z,19.31
2022-08-22T20:38:56.985Z,19.28
2022-08-22T20:41:25.546Z,19.29
2022-08-22T20:44:02.013Z,19.28
2022-08-22T20:46:48.360Z,19.25
2022-08-22T20:49:21.567Z,19.26
2022-08-22T20:51:52.354Z,19.26
2022-08-22T20:54:20.636Z,19.22
2022-08-22T20:56:48.848Z,19.22
2022-08-22T20:59:29.669Z,19.20
2022-08-22T21:02:08.750Z,19.14
2022-08-22T21:04:42.775Z,19.09
2022-08-22T21:07:09.486Z,19.05
2022-08-22T21:09:54.670Z,19.04
2022-08-22T21:12:22.314Z,19.04
2022-08-22T21:14:48.873Z,18.99
2022-08-22T21:17:19.433Z,18.95
2022-08-22T21:19:45.958Z,18.96
2022-08-22T21:22:13.897Z,18.93
2022-08-22T21:24:40.370Z,18.90
2022-08-22T21:27:07.559Z,18.90
2022-08-22T21:29:34.292Z,18.88
2022-08-22T21:32:06.098Z,18.87
2022-08-22T21:34:44.481Z,18.83
2022-08-22T21:37:16.007Z,18.73
2022-08-22T21:39:44.075Z,18.67
2022-08-22T21:42:11.868Z,18.58
2022-08-22T21:44:39.295Z,18.51
2022-08-22T21:47:14.945Z,18.48
2022-08-22T21:50:02.246Z,18.42
2022-08-22T21:52:29.547Z,18.28
2022-08-22T21:55:12.194Z,18.23
2022-08-22T21:57:38.713Z,18.14
2022-08-22T22:00:13.888Z,18.08
2022-08-22T22:02:41.180Z,18.06
2022-08-22T22:05:11.784Z,18.08
2022-08-22T22:07:42.113Z,18.06
2022-08-22T22:10:10.369Z,18.02
2022-08-22T22:12:40.870Z,17.98
2022-08-22T22:15:07.640Z,17.90
2022-08-22T22:17:34.106Z,17.88
2022-08-22T22:20:00.536Z,17.81
2022-08-22T22:22:26.992Z,17.73
2022-08-22T22:24:53.408Z,17.68
2022-08-22T22:27:19.853Z,17.61
2022-08-22T22:29:46.343Z,17.54
2022-08-22T22:32:12.833Z,17.51
2022-08-22T22:34:39.291Z,17.43
2022-08-22T22:37:06.830Z,17.38
2022-08-22T22:39:33.741Z,17.32
2022-08-22T22:42:00.386Z,17.32
2022-08-22T22:44:26.870Z,17.35
2022-08-22T22:47:00.663Z,17.32
2022-08-22T22:49:27.286Z,17.33
2022-08-22T22:51:53.759Z,17.32
2022-08-22T22:54:20.388Z,17.35
2022-08-22T22:56:53.855Z,17.35
2022-08-22T22:59:24.840Z,17.37
2022-08-22T23:02:11.623Z,17.37
2022-08-22T23:04:38.896Z,17.33
2022-08-22T23:07:06.263Z,17.24
2022-08-22T23:09:38.571Z,17.22
2022-08-22T23:12:11.322Z,17.25
2022-08-22T23:14:37.741Z,17.23
2022-08-22T23:17:04.311Z,17.24
2022-08-22T23:19:30.860Z,17.26
2022-08-22T23:21:58.034Z,17.29
2022-08-22T23:24:24.758Z,17.26
2022-08-22T23:26:51.203Z,17.23
2022-08-22T23:29:17.613Z,17.23
2022-08-22T23:31:50.078Z,17.17
2022-08-22T23:34:17.769Z,17.08
2022-08-22T23:36:45.421Z,17.07
2022-08-22T23:39:12.224Z,17.05
2022-08-22T23:41:39.311Z,17.02
2022-08-22T23:44:06.598Z,17.14
2022-08-22T23:46:35.559Z,17.31
2022-08-22T23:49:02.211Z,17.45
2022-08-22T23:51:28.743Z,17.54
2022-08-22T23:53:55.823Z,17.75
2022-08-22T23:56:25.681Z,17.67
2022-08-22T23:58:53.364Z,17.67
